Date,TemperatureHighF,TemperatureAvgF,TemperatureLowF,DewpointHighF,DewpointAvgF,DewpointLowF,HumidityHigh,HumidityAvg,HumidityLow,PressureMaxIn,PressureMinIn,WindSpeedMaxMPH,WindSpeedAvgMPH,GustSpeedMaxMPH,PrecipitationSumIn
2012-1-1,66.4,54.5,46.4,52.3,47.2,42.7,89,78,54,30.34,30.25,5,1,10,0.00
2012-1-2,65.0,58.0,54.0,53.3,47.6,38.8,93,70,45,30.39,30.15,10,5,15,0.00
2012-1-3,62.2,54.3,48.1,47.9,43.3,39.7,84,67,49,30.48,30.37,9,1,15,0.00
2012-1-4,62.7,51.5,43.8,47.6,43.3,38.6,87,75,48,30.46,30.33,9,1,14,0.00
2012-1-5,66.5,57.3,47.4,46.9,38.5,25.7,89,57,22,30.44,30.05,11,4,22,0.00
2012-1-6,61.2,56.1,48.8,49.4,45.5,39.7,80,68,53,30.36,30.03,11,5,22,0.00
2012-1-7,61.5,51.0,42.9,46.6,40.8,35.6,86,69,48,30.44,30.33,5,1,9,0.00
2012-1-8,63.8,49.9,42.0,47.0,40.1,34.6,85,70,48,30.39,30.27,3,0,7,0.00
2012-1-9,56.3,48.0,42.4,47.5,41.6,38.5,87,79,61,30.48,30.28,8,2,15,0.00
2012-1-10,61.2,49.5,41.3,47.3,42.8,37.7,88,79,55,30.51,30.44,4,0,5,0.01
2012-1-11,60.8,51.1,44.3,49.1,43.6,41.0,92,77,54,30.54,30.46,3,0,6,0.00
2012-1-12,55.2,48.8,45.2,46.5,42.6,40.0,83,79,68,30.54,30.50,2,0,4,0.00
2012-1-13,59.9,51.0,44.5,44.4,42.3,39.5,84,73,56,30.43,30.22,4,1,7,0.00
2012-1-14,58.9,49.8,43.2,46.8,42.7,39.3,88,77,58,30.21,30.09,3,0,6,0.00
2012-1-15,58.6,46.8,42.4,46.5,40.1,37.0,92,79,45,30.13,30.03,7,1,11,0.01
2012-1-16,56.0,48.8,42.1,47.3,43.2,36.4,88,81,64,30.08,29.91,8,2,13,0.15
2012-1-17,57.2,52.1,47.1,51.2,47.3,42.8,91,84,65,30.45,30.07,8,2,18,0.21
2012-1-18,60.3,50.1,44.1,48.1,43.9,40.6,88,80,60,30.62,30.45,3,0,7,0.00
2012-1-19,60.4,50.3,43.0,49.1,42.4,38.8,87,75,52,30.68,30.54,6,2,12,0.01
2012-1-20,56.7,50.4,47.5,51.1,45.6,41.5,88,84,74,30.54,30.38,6,2,11,0.00
2012-1-21,67.5,52.7,44.7,51.6,45.2,41.6,91,78,43,30.38,30.29,3,0,5,0.00
2012-1-22,66.4,50.8,43.5,47.4,42.2,37.4,84,73,45,30.29,30.12,8,0,11,0.00
2012-1-23,65.6,53.4,45.5,49.1,44.7,41.4,88,74,51,30.14,30.04,2,0,5,0.00
2012-1-24,60.0,51.1,44.1,50.6,45.3,39.9,89,81,69,30.24,30.14,5,0,7,0.00
2012-1-25,63.8,50.7,44.2,49.5,44.1,41.2,90,79,49,30.25,30.11,3,0,7,0.00
2012-1-26,52.7,45.2,42.4,47.4,41.5,38.6,88,87,82,30.14,30.07,0,0,0,0.01
2012-1-27,58.4,51.6,46.5,49.6,45.6,41.1,91,80,67,30.21,30.13,7,2,10,0.01
2012-1-28,51.9,49.7,42.7,49.3,46.3,39.2,94,88,73,30.25,30.14,7,3,13,1.22
2012-1-29,45.5,42.9,40.7,40.6,38.7,37.0,91,85,75,30.14,30.07,9,2,19,0.26
2012-1-30,50.6,46.3,39.5,38.1,36.4,34.6,83,69,57,30.27,30.09,10,6,23,0.04
2012-1-31,56.7,48.7,38.7,43.5,38.8,33.9,85,70,50,30.26,30.02,8,4,22,0.00
2012-2-1,54.0,48.1,41.7,46.9,41.4,36.2,89,78,66,30.06,29.82,6,2,11,0.15
2012-2-2,47.2,42.6,41.0,44.4,38.3,35.8,92,85,77,29.91,29.80,11,8,25,0.49
2012-2-3,41.6,39.2,35.1,37.1,34.8,26.5,93,84,64,30.17,29.92,11,6,21,0.35
2012-2-4,39.4,36.1,31.2,28.8,25.9,22.7,90,67,54,30.34,30.15,8,4,15,0.03
2012-2-5,46.7,37.2,30.6,37.1,30.1,21.1,91,77,36,30.35,30.15,10,1,15,0.13
2012-2-6,52.9,44.0,39.5,39.5,34.8,30.4,91,70,50,30.22,30.11,7,3,14,0.01
2012-2-7,49.1,44.3,38.0,33.0,27.3,23.9,78,52,40,30.11,29.97,10,4,16,0.00
2012-2-8,43.9,40.8,35.5,37.9,34.1,28.1,92,77,62,30.30,30.07,8,5,16,0.26
2012-2-9,52.7,45.6,39.5,39.6,35.4,29.2,76,68,45,30.35,30.22,6,2,11,0.00
2012-2-10,51.7,43.0,37.4,40.7,32.9,27.0,84,68,51,30.21,30.12,9,3,16,0.00
2012-2-11,45.4,39.6,35.3,34.1,30.8,28.4,88,71,56,30.19,30.08,7,4,13,0.02
2012-2-12,41.4,37.9,34.1,36.6,33.5,29.6,92,84,66,30.22,30.15,5,1,7,0.08
2012-2-13,45.2,38.9,34.5,33.3,29.1,24.2,91,69,44,30.25,30.19,9,2,19,0.20
2012-2-14,48.1,38.8,36.7,34.0,28.6,26.2,71,66,58,30.19,30.05,7,1,16,0.22
2012-2-16,54.8,47.0,44.2,41.5,39.9,38.1,83,77,59,30.19,30.16,6,1,8,0.00
2012-2-17,49.9,45.1,43.0,44.9,41.3,39.4,88,87,83,30.29,30.29,1,0,1,0.00
2012-2-18,42.9,42.8,42.7,39.3,39.2,39.1,87,87,87,30.29,30.29,0,0,0,0.00
2012-2-19,55.1,44.1,40.3,48.3,40.8,37.6,92,88,73,30.20,30.17,8,1,11,0.00
2012-2-20,48.6,47.1,45.6,38.5,36.6,34.8,76,67,61,30.31,30.28,10,6,18,0.13
2012-2-21,50.4,49.0,47.9,44.1,43.3,42.4,85,81,76,30.32,30.31,8,5,11,0.11
2012-2-22,50.5,47.5,45.8,43.1,36.7,35.0,76,66,56,30.32,30.31,7,2,10,0.11
2012-2-28,53.2,53.2,53.2,42.9,42.9,42.9,68,68,68,30.27,30.27,4,4,7,0.00
2012-2-29,53.2,53.2,53.2,42.9,42.9,42.9,68,68,68,30.27,30.27,4,4,7,0.00
2012-3-1,53.2,53.2,53.2,42.9,42.9,42.9,68,68,68,30.27,30.27,4,4,7,0.00
2012-3-2,53.2,53.2,53.2,42.9,42.9,42.9,68,68,68,30.27,30.27,4,4,7,0.00
2012-3-3,53.2,53.2,53.2,42.9,42.9,42.9,68,68,68,30.27,30.27,4,4,7,0.00
2012-3-4,69.1,59.6,50.0,50.4,45.2,42.0,83,61,39,30.27,30.14,9,3,15,0.01
2012-3-5,58.7,53.0,48.9,48.5,46.5,43.8,87,79,67,30.31,30.15,7,2,12,0.05
2012-3-6,53.0,46.9,42.0,45.1,41.6,39.3,90,82,66,30.30,30.18,6,1,9,0.40
2012-3-7,55.1,50.2,45.5,42.2,39.3,34.5,87,67,50,30.35,30.26,14,4,24,0.00
2012-3-8,58.9,49.9,42.0,44.6,38.1,32.6,81,65,45,30.33,30.21,16,5,31,0.00
2012-3-9,54.4,51.8,49.6,41.9,38.2,32.8,69,60,50,30.47,30.32,13,9,26,0.00
2012-3-10,55.3,52.1,46.2,41.5,40.8,34.6,69,66,58,30.46,30.35,8,5,12,0.00
2012-3-11,67.7,59.2,49.0,41.3,37.3,31.3,61,45,27,30.32,30.22,9,3,14,0.00
2012-3-12,67.0,58.6,47.3,47.3,43.4,35.8,70,58,47,30.32,30.24,8,3,12,0.00
2012-3-13,64.7,55.4,49.2,47.4,40.9,34.5,68,58,52,30.32,30.27,7,3,12,0.00
2012-3-14,72.4,64.8,46.9,48.0,43.4,39.2,82,49,34,30.37,30.30,4,1,8,0.00
2012-3-15,68.6,56.2,46.8,50.5,44.0,39.8,80,66,35,30.40,30.36,5,0,9,0.00
2012-3-16,69.9,59.1,50.5,52.0,42.2,35.3,87,56,30,30.38,30.25,7,2,12,0.00
2012-3-17,67.1,56.6,47.7,54.2,50.2,44.0,88,80,62,30.29,30.20,7,2,11,0.00
2012-3-18,70.5,60.2,52.2,55.3,48.0,37.5,92,67,38,30.27,30.16,8,3,18,0.00
2012-3-19,57.7,53.8,51.6,47.8,45.5,37.8,83,74,55,30.43,30.27,8,4,16,0.01
2012-3-20,54.7,51.9,49.3,52.4,47.4,42.0,92,85,69,30.41,30.23,11,7,24,0.26
2012-3-21,67.5,58.3,54.5,57.8,54.7,52.0,94,88,70,30.27,30.16,6,1,9,0.00
2012-3-22,67.0,57.8,49.7,54.4,50.1,36.6,93,77,41,30.29,30.16,6,2,11,0.00
2012-3-23,64.9,54.8,45.4,49.2,44.4,41.4,89,70,47,30.30,30.22,6,2,11,0.00
2012-3-24,62.9,55.7,48.3,50.5,47.0,42.0,87,73,51,30.27,30.18,7,3,13,0.00
2012-3-25,72.1,58.9,47.2,52.4,47.5,41.3,87,68,40,30.32,30.24,5,1,8,0.00
2012-3-26,69.4,57.7,48.9,49.0,45.0,41.3,83,65,38,30.32,30.27,7,2,14,0.00
2012-3-27,68.8,59.0,50.5,52.7,44.5,41.3,77,60,38,30.34,30.27,8,2,14,0.00
2012-3-28,70.3,58.6,50.5,54.1,45.6,40.0,84,64,36,30.31,30.22,5,1,11,0.00
2012-3-29,70.5,58.0,49.5,48.4,41.0,36.9,73,55,30,30.24,30.08,6,1,10,0.00
2012-3-30,79.0,62.2,49.5,48.5,41.5,34.7,69,50,22,30.10,29.91,6,1,10,0.00
2012-3-31,76.4,59.8,50.6,49.8,44.0,39.9,78,58,27,29.94,29.83,8,2,11,0.00
2012-4-1,75.5,63.1,52.6,54.5,46.4,37.6,87,56,41,29.85,29.75,6,2,11,0.00
2012-4-2,72.4,61.4,54.2,56.3,53.5,50.4,89,77,49,29.82,29.75,6,2,10,0.00
2012-4-3,67.2,60.8,56.6,56.5,54.4,51.6,90,80,61,29.80,29.71,7,2,15,0.05
2012-4-4,68.8,60.8,55.7,55.7,53.3,49.2,91,78,52,29.77,29.69,6,2,12,0.00
2012-4-5,67.8,58.4,53.3,55.0,52.6,49.9,89,81,60,29.83,29.73,6,1,12,0.00
2012-4-6,64.4,57.0,52.7,53.9,50.1,43.1,88,78,64,29.89,29.79,10,3,21,0.13
2012-4-7,64.0,56.7,48.2,47.6,42.7,35.9,83,61,39,29.89,29.82,15,5,23,0.00
2012-4-8,67.3,59.3,54.2,44.7,42.2,36.7,68,55,34,29.98,29.88,9,4,16,0.00
2012-4-9,71.0,59.5,49.3,50.9,45.4,41.0,83,61,41,30.00,29.86,8,2,14,0.00
2012-4-10,72.2,60.2,53.9,55.2,50.3,39.8,89,71,44,29.86,29.64,13,3,22,0.05
2012-4-11,65.9,60.6,55.3,47.8,39.9,31.2,73,48,29,29.84,29.67,9,5,23,0.00
2012-4-12,67.6,60.3,52.0,54.1,51.1,40.6,88,72,59,29.83,29.58,7,2,12,0.01
2012-4-13,61.3,55.7,52.3,53.9,48.5,41.0,93,78,50,29.72,29.53,9,4,16,0.25
2012-4-14,65.0,58.2,51.9,49.7,44.5,38.1,78,61,42,29.71,29.52,11,5,22,0.00
2012-4-15,57.7,52.1,47.5,49.1,46.2,43.6,89,81,64,29.77,29.55,6,2,12,0.64
2012-4-16,55.6,50.2,45.4,46.6,43.7,40.6,91,79,60,30.02,29.77,6,1,13,0.21
2012-4-17,61.9,54.4,48.4,44.3,39.4,28.7,85,60,31,30.04,29.92,9,3,16,0.00
2012-4-18,64.0,57.9,52.4,52.4,45.0,34.6,88,65,35,29.91,29.62,10,4,19,0.00
2012-4-19,68.1,62.0,53.4,49.2,44.0,40.4,83,53,37,29.64,29.53,11,5,21,0.00
2012-4-20,70.4,61.3,54.0,52.5,43.9,37.9,81,55,31,29.87,29.64,10,5,19,0.00
2012-4-21,76.1,64.3,55.1,57.0,52.0,46.8,90,67,37,29.95,29.84,8,3,14,0.00
2012-4-22,66.2,60.6,56.6,55.4,53.1,51.1,91,77,60,30.02,29.92,9,4,12,0.00
2012-4-23,65.9,59.5,54.0,55.9,53.4,49.9,92,81,65,30.01,29.82,8,3,18,0.14
2012-4-24,56.4,55.9,55.2,41.1,38.0,36.4,59,51,47,29.97,29.96,5,4,7,0.00
2012-4-25,70.7,62.6,52.4,55.9,50.1,37.0,83,64,51,29.97,29.81,11,4,18,0.00
2012-4-26,80.2,68.5,55.6,56.2,46.3,35.5,80,48,23,29.93,29.80,7,2,14,0.00
2012-4-27,88.6,73.6,63.9,56.6,49.3,42.8,67,43,26,29.91,29.81,7,2,12,0.00
2012-4-28,80.8,68.8,58.7,60.5,55.1,49.2,90,64,34,29.82,29.66,10,2,16,0.04
2012-4-29,68.1,61.6,55.6,55.6,50.8,45.7,87,69,51,29.98,29.83,8,4,15,0.00
2012-4-30,66.8,60.5,56.3,54.1,48.1,39.7,86,66,39,30.02,29.91,9,5,21,0.00
2012-5-1,70.8,61.1,51.7,53.4,47.9,41.3,85,64,35,30.08,30.00,7,2,15,0.00
2012-5-2,71.7,62.2,52.4,52.8,48.5,42.6,84,62,40,30.08,30.03,6,2,10,0.00
2012-5-3,57.6,55.8,54.1,50.1,49.1,48.4,81,78,75,30.06,30.04,0,0,4,0.00
2012-5-4,74.0,64.0,57.8,58.0,54.5,46.8,89,73,39,29.91,29.83,12,5,20,0.00
2012-5-5,74.3,65.2,58.0,58.8,54.0,46.1,92,70,37,29.88,29.83,13,5,24,0.00
2012-5-6,68.7,61.9,58.4,58.2,55.7,50.7,88,81,54,30.10,29.84,6,2,14,0.24
2012-5-7,73.6,63.6,52.2,57.9,53.2,47.2,89,71,43,30.16,30.09,8,3,15,0.00
2012-5-8,76.0,65.8,58.6,58.6,52.7,45.7,92,66,36,30.16,30.07,9,4,16,0.00
2012-5-9,87.0,71.2,59.8,50.4,41.5,31.0,61,36,19,30.18,30.06,7,2,11,0.00
2012-5-10,85.6,73.2,60.5,50.3,45.5,33.4,61,39,18,30.30,30.18,5,1,10,0.00
2012-5-11,88.6,78.5,62.8,52.2,46.7,37.9,63,35,21,30.31,30.25,7,2,11,0.00
2012-5-12,87.1,74.4,62.3,54.4,49.3,45.0,62,43,28,30.31,30.20,6,2,11,0.00
2012-5-13,84.2,73.1,64.3,61.6,52.8,48.6,87,52,31,30.22,30.01,8,2,16,0.04
2012-5-14,75.6,67.8,62.4,61.1,51.6,46.5,87,58,42,30.09,29.97,7,4,11,0.01
2012-5-15,77.3,66.3,58.2,57.2,53.3,45.8,87,66,35,30.12,30.00,7,1,14,0.00
2012-5-16,65.0,61.4,55.8,55.9,49.9,46.5,85,67,52,30.24,30.11,10,3,13,0.00
2012-5-17,77.0,64.3,52.6,53.1,47.7,41.6,80,58,30,30.21,29.95,9,2,14,0.00
2012-5-18,74.3,66.4,59.3,59.1,55.8,49.8,81,69,53,29.97,29.79,6,2,13,0.00
2012-5-19,76.1,67.7,60.7,61.1,58.8,56.2,85,74,58,29.83,29.74,7,3,14,0.00
2012-5-20,75.2,67.2,54.6,60.3,52.0,38.2,88,62,29,29.77,29.66,11,5,22,0.74
2012-5-21,66.8,60.5,56.2,52.9,46.4,41.7,87,61,41,29.89,29.70,16,8,34,0.02
2012-5-22,74.9,66.0,60.6,52.7,48.3,43.2,64,53,40,30.08,29.85,15,6,22,0.00
2012-5-23,80.8,70.5,61.6,54.7,51.4,47.4,69,52,33,30.16,30.05,8,2,14,0.00
2012-5-24,83.4,71.7,59.7,56.4,50.7,44.4,71,50,28,30.16,30.08,7,2,16,0.00
2012-5-25,84.0,71.7,60.6,58.0,54.4,51.4,74,56,38,30.10,29.95,6,2,11,0.00
2012-5-26,83.2,73.3,65.0,56.8,51.7,48.9,67,48,31,30.03,29.97,8,3,13,0.00
2012-5-27,85.4,73.1,62.0,58.9,53.9,50.7,68,53,33,30.06,29.98,7,2,12,0.00
2012-5-28,81.2,71.6,63.9,61.3,57.4,53.7,75,62,42,30.02,29.96,9,2,14,0.00
2012-5-29,84.8,73.6,63.3,61.0,57.3,52.9,76,59,35,30.04,29.96,7,2,14,0.00
2012-5-30,87.1,75.1,65.0,61.2,57.8,52.6,74,57,34,30.15,30.04,6,2,10,0.00
2012-5-31,86.6,76.4,66.5,61.7,57.1,53.9,67,52,37,30.15,30.08,8,2,14,0.00
2012-6-1,89.6,77.5,67.6,59.0,56.2,54.2,66,49,32,30.11,29.99,8,2,15,0.00
2012-6-2,90.5,79.1,68.0,56.6,53.4,48.1,63,43,27,30.00,29.92,7,2,13,0.00
2012-6-3,80.0,74.1,67.1,66.0,56.9,48.1,80,56,45,30.02,29.92,5,1,11,0.01
2012-6-4,82.8,73.3,65.9,64.8,61.7,57.7,86,69,48,30.07,29.98,6,3,13,0.00
2012-6-5,82.6,73.7,67.3,63.4,60.8,57.9,83,66,45,30.08,29.99,8,3,15,0.00
2012-6-6,87.7,77.4,65.2,62.6,56.3,50.7,79,51,32,30.00,29.84,9,4,16,0.00
2012-6-7,97.2,83.2,68.6,63.0,55.6,49.7,71,41,24,29.86,29.68,6,2,14,0.00
2012-6-8,80.3,74.1,68.8,67.4,62.4,58.5,81,67,49,30.02,29.70,10,5,20,0.00
2012-6-9,83.4,69.5,67.2,61.3,49.8,-99.9,74,57,40,30.09,30.00,8,-41,11,0.00
2012-6-10,81.5,74.6,69.0,67.7,65.0,61.7,86,73,52,30.06,29.86,9,5,15,0.00
2012-6-11,85.4,75.1,70.0,67.5,65.2,62.4,88,72,49,29.88,29.69,8,3,12,0.00
2012-6-12,78.4,71.7,65.1,64.1,54.1,42.2,82,58,28,30.02,29.73,11,4,19,0.00
2012-6-13,81.2,71.5,62.8,59.2,55.5,50.6,72,58,36,30.08,30.01,5,1,9,0.00
2012-6-14,66.7,65.4,64.3,58.6,58.1,57.7,81,77,73,30.09,30.06,0,0,2,0.00
2012-6-15,87.3,74.4,63.3,61.0,52.0,41.4,69,47,29,30.13,30.08,8,1,12,0.00
2012-6-16,89.0,73.2,63.3,62.6,53.3,45.0,71,50,34,30.15,30.08,6,1,10,0.00
2012-6-17,88.4,76.9,67.0,64.2,57.7,48.6,71,53,28,30.12,30.01,5,2,10,0.00
2012-6-18,88.3,76.7,68.4,64.9,58.6,47.6,76,55,34,30.05,29.96,7,2,8,0.00
2012-6-19,91.6,78.9,70.8,68.4,60.6,55.3,81,55,36,30.02,29.87,6,2,11,0.00
2012-6-20,94.4,81.7,71.2,70.0,65.8,58.0,89,61,34,29.93,29.83,6,2,11,0.01
2012-6-21,91.4,80.0,71.2,69.6,67.5,62.9,88,68,41,29.98,29.88,8,4,15,0.00
2012-6-22,82.6,76.4,70.9,69.6,62.3,58.5,84,63,48,30.16,29.98,9,5,16,0.00
2012-6-23,85.3,76.1,67.8,62.8,60.7,53.3,78,60,40,30.22,30.15,7,3,11,0.00
2012-6-24,93.8,79.3,69.8,63.3,60.0,57.2,69,53,33,30.20,30.11,6,2,10,0.00
2012-6-25,93.0,81.7,70.6,65.8,59.9,55.5,70,49,30,30.15,30.09,6,2,11,0.00
2012-6-26,93.9,81.8,70.5,63.2,59.1,52.1,59,47,29,30.15,30.12,8,2,14,0.00
2012-6-27,95.8,83.1,73.1,60.8,58.1,53.3,61,45,28,30.14,29.99,6,2,10,0.00
2012-6-28,97.4,86.4,76.4,68.9,57.3,46.2,71,38,28,30.00,29.85,6,3,13,0.00
2012-6-29,100.5,86.9,72.6,69.4,57.1,48.2,79,42,19,29.88,29.84,8,3,15,0.00
2012-6-30,96.2,86.1,77.3,71.7,61.8,47.0,79,46,22,29.88,29.82,7,4,14,0.00
2012-7-1,87.3,76.2,66.5,72.7,67.9,58.7,88,76,55,30.04,29.83,10,4,15,0.34
2012-7-2,81.6,72.9,64.3,62.8,60.6,58.4,84,67,47,30.11,30.05,6,2,11,0.00
2012-7-3,87.1,76.1,65.9,64.9,61.9,52.5,84,64,36,30.11,29.99,6,2,9,0.00
2012-7-4,89.3,77.8,66.6,66.2,62.3,53.7,81,61,33,30.01,29.84,8,3,15,0.00
2012-7-5,87.6,78.0,69.1,67.8,65.2,60.3,80,66,47,29.87,29.76,9,3,13,0.00
2012-7-6,82.5,76.0,70.7,68.4,67.2,65.4,88,75,60,29.97,29.84,7,3,12,0.00
2012-7-7,91.0,80.1,69.6,70.4,67.9,64.6,86,68,45,29.98,29.86,6,2,8,0.00
2012-7-8,79.2,72.3,69.0,71.0,67.7,64.6,89,85,75,29.92,29.87,4,1,10,0.00
2012-7-9,88.6,76.9,71.0,67.7,66.1,63.8,85,71,46,29.99,29.96,8,2,12,0.00
2012-7-10,79.4,78.3,77.3,69.6,69.2,68.8,75,74,72,29.99,29.95,2,1,6,0.00
2012-7-11,77.5,75.6,73.2,70.9,70.0,68.1,87,83,75,30.00,29.98,4,1,7,0.00
2012-7-12,85.5,76.7,71.5,70.3,64.7,62.9,86,67,49,30.16,30.06,9,4,14,0.00
2012-7-13,87.1,79.5,69.8,70.4,66.6,63.0,82,66,48,30.07,29.87,10,4,19,0.00
2012-7-14,81.2,75.8,70.7,71.7,65.8,55.4,84,71,55,30.02,29.82,11,5,19,0.00
2012-7-15,81.1,74.3,70.0,62.6,61.4,58.8,73,64,52,30.25,30.03,7,5,12,0.00
2012-7-16,82.8,74.7,68.7,63.6,61.2,58.2,76,63,50,30.34,30.25,6,3,14,0.00
2012-7-17,89.6,78.5,65.5,63.5,56.8,47.8,81,52,25,30.35,30.23,7,2,12,0.00
2012-7-18,96.9,83.6,69.0,61.3,53.1,48.9,53,38,21,30.24,30.06,6,2,13,0.00
2012-7-19,96.4,82.9,70.6,65.0,53.7,47.9,63,39,22,30.07,29.91,6,2,11,0.00
2012-7-20,94.5,81.3,71.1,67.2,56.7,45.8,71,44,25,29.96,29.90,8,2,13,0.00
2012-7-21,80.9,75.8,72.4,69.5,61.8,55.7,85,63,42,30.12,29.96,9,5,20,0.00
2012-7-22,79.0,73.9,70.9,60.4,57.3,53.9,63,56,51,30.12,30.06,7,2,10,0.00
2012-7-23,81.3,73.8,66.8,59.3,52.0,45.1,66,47,29,30.09,30.01,9,3,15,0.00
2012-7-24,88.4,75.5,63.9,60.5,52.8,42.2,70,47,25,30.04,29.97,7,2,12,0.00
2012-7-25,91.2,78.4,66.9,65.0,57.8,52.6,72,51,30,30.03,29.97,9,2,15,0.00
2012-7-26,93.5,80.5,70.1,68.1,61.7,54.4,74,55,30,30.04,29.94,6,2,12,0.00
2012-7-27,94.9,83.6,76.7,72.8,65.1,56.4,83,55,36,30.00,29.81,8,2,12,0.00
2012-7-28,87.0,79.7,73.9,73.2,68.2,60.0,91,69,49,29.96,29.83,11,2,19,0.00
2012-7-29,88.8,80.0,72.7,69.1,67.0,62.9,87,66,47,30.07,29.93,7,2,12,0.00
2012-7-30,76.2,73.1,71.1,68.2,65.8,62.3,84,78,72,30.10,30.05,3,0,5,0.00
2012-7-31,95.0,83.0,70.8,68.9,62.5,56.9,81,53,31,30.09,29.98,9,2,18,0.00
2012-8-1,97.1,86.2,75.7,71.1,56.2,48.2,75,38,20,30.00,29.86,7,3,20,0.00
2012-8-2,96.1,82.2,73.5,73.5,71.3,65.1,89,71,37,29.97,29.89,6,2,12,0.00
2012-8-3,86.1,80.4,73.6,73.0,67.1,58.0,90,65,49,30.00,29.94,8,5,14,0.00
2012-8-4,93.6,81.1,70.8,70.2,66.1,58.2,79,62,36,29.98,29.83,7,2,14,0.00
2012-8-5,89.9,79.8,70.6,72.0,69.3,63.0,85,71,51,29.85,29.78,7,2,13,0.00
2012-8-6,86.6,78.1,73.8,73.3,70.9,67.6,87,79,61,30.15,29.81,9,4,20,0.00
2012-8-7,84.8,77.7,72.2,67.5,63.4,56.8,82,63,40,30.20,30.11,9,5,18,0.00
2012-8-8,90.2,81.0,74.2,67.4,56.4,43.1,70,44,30,30.15,30.07,7,4,12,0.00
2012-8-9,98.9,83.9,73.5,65.4,53.0,36.6,68,38,16,30.18,30.07,7,2,12,0.00
2012-8-10,95.9,83.9,73.9,66.3,57.0,50.5,67,41,26,30.12,30.02,7,1,10,0.00
2012-8-11,97.9,85.9,77.3,74.9,63.6,56.8,81,50,26,30.06,29.91,9,2,18,0.00
2012-8-12,94.8,81.5,76.6,75.7,72.0,66.3,86,74,47,29.94,29.87,8,3,14,0.00
2012-8-13,89.2,79.8,74.5,66.5,63.9,61.6,73,59,43,29.94,29.88,7,4,12,0.00
2012-8-14,91.5,80.7,72.1,69.8,64.5,60.3,79,59,36,29.94,29.88,7,2,13,0.00
2012-8-15,76.8,76.5,76.1,70.1,69.3,68.9,80,79,78,29.92,29.89,4,3,7,0.00
2012-8-16,93.5,82.1,71.4,73.0,70.3,65.1,89,69,44,30.04,29.97,7,2,12,0.00
2012-8-17,97.8,85.1,73.0,73.6,65.7,55.9,85,56,30,30.05,29.99,6,2,11,0.00
2012-8-18,98.3,85.7,73.6,67.8,58.3,50.1,66,40,32,30.08,30.01,5,1,9,0.00
2012-8-19,100.0,85.8,74.5,71.0,61.8,54.3,69,47,24,30.15,30.08,4,1,9,0.00
2012-8-20,97.6,85.7,77.1,67.8,60.1,54.1,64,44,26,30.17,30.09,6,1,11,0.00
2012-8-21,99.6,87.3,75.8,59.6,55.8,52.7,53,36,22,30.13,30.00,7,2,15,0.00
2012-8-22,102.4,87.9,75.8,66.2,56.1,51.9,56,36,20,30.04,29.95,7,2,13,0.00
2012-8-23,103.6,87.6,75.7,68.9,58.0,48.6,65,39,16,29.98,29.86,5,1,9,0.00
2012-8-24,92.3,84.1,76.3,73.3,69.1,58.4,82,62,44,29.89,29.79,7,3,13,0.00
2012-8-25,92.0,81.9,72.6,74.0,71.1,64.7,85,71,51,29.99,29.81,6,3,13,0.00
2012-8-26,80.7,77.2,73.3,72.2,65.0,63.3,81,66,57,30.14,29.99,8,5,16,0.00
2012-8-27,88.8,78.3,69.8,68.7,65.2,62.5,79,66,44,30.14,30.04,7,2,15,0.00
2012-8-28,92.6,82.3,72.8,70.9,66.4,60.6,77,60,40,30.10,30.05,7,2,15,0.00
2012-8-29,98.0,83.0,71.6,71.8,62.1,51.3,77,53,23,30.10,30.00,7,1,11,0.00
2012-8-30,80.6,75.0,73.0,69.3,66.0,61.7,83,74,64,30.14,30.01,10,5,18,0.04
2012-8-31,77.3,72.6,67.9,63.7,59.6,56.4,85,64,56,30.20,30.12,9,5,19,0.05
2012-9-1,69.1,63.8,59.0,59.4,58.0,55.4,90,82,64,30.20,30.10,6,1,14,0.52
2012-9-2,72.1,64.5,58.7,60.4,55.9,53.6,90,75,56,30.16,30.08,9,2,18,0.32
2012-9-3,80.5,70.3,62.4,63.3,55.9,51.5,85,62,37,30.15,30.00,8,2,13,0.16
2012-9-4,79.3,71.1,65.1,64.8,61.2,57.5,84,72,54,30.09,30.01,5,2,11,0.17
2012-9-5,82.8,73.3,65.3,62.9,60.1,56.2,84,65,42,30.10,30.02,5,1,11,0.00
2012-9-6,86.9,75.2,65.4,63.9,59.9,56.9,81,61,38,30.15,30.09,5,1,10,0.00
2012-9-8,80.2,80.2,80.2,69.1,69.1,69.1,69,69,69,29.92,29.92,0,0,1,0.00
2012-9-9,80.2,80.2,80.2,69.1,69.1,69.1,69,69,69,29.92,29.92,0,0,1,0.00
2012-9-10,80.2,80.2,80.2,69.1,69.1,69.1,69,69,69,29.92,29.92,0,0,1,0.00
2012-9-11,80.2,80.2,80.2,69.1,69.1,69.1,69,69,69,29.92,29.92,0,0,1,0.00
2012-9-12,80.2,78.1,65.7,69.1,68.6,63.3,92,73,68,30.00,29.91,11,1,19,0.66
2012-9-13,76.8,68.7,63.8,63.1,58.7,54.8,92,71,50,30.00,29.91,10,4,16,0.03
2012-9-14,77.8,70.8,64.6,60.7,57.4,54.9,84,64,47,30.01,29.94,8,2,14,0.00
2012-9-15,84.5,73.3,62.9,64.2,55.7,49.3,73,56,34,30.01,29.95,9,3,21,0.00
2012-9-16,86.8,74.3,63.2,67.0,57.9,50.0,84,60,29,30.00,29.95,7,2,15,0.00
2012-9-17,88.5,75.7,65.0,65.8,55.6,40.6,84,54,19,30.00,29.95,7,2,12,0.00
2012-9-18,87.1,76.0,65.4,69.2,59.1,43.5,86,59,23,30.00,29.91,7,2,12,0.00
2012-9-19,74.7,72.0,68.3,68.9,63.5,59.5,88,75,62,30.11,29.92,10,4,16,0.00
2012-9-20,81.1,72.3,66.2,62.5,59.5,55.6,76,65,51,30.14,30.07,5,2,9,0.00
2012-9-21,84.1,73.9,65.9,66.7,61.7,53.6,82,68,36,30.12,29.98,5,2,10,0.00
2012-9-22,83.6,73.0,65.9,70.4,65.1,58.3,86,77,63,29.99,29.91,5,1,9,0.00
2012-9-23,84.8,76.7,70.5,70.3,68.3,64.9,88,76,52,30.00,29.84,9,4,19,0.00
2012-9-24,82.3,76.7,70.7,70.3,60.7,49.6,90,60,38,29.95,29.80,9,5,19,0.00
2012-9-25,80.5,74.0,69.3,66.0,60.0,49.7,86,64,35,29.89,29.72,12,5,25,0.00
2012-9-26,79.8,73.4,68.0,64.7,61.3,55.3,82,67,43,29.87,29.68,10,4,19,0.00
2012-9-27,70.0,66.7,62.8,65.0,60.4,53.6,89,81,61,30.01,29.87,6,2,9,0.23
2012-9-28,73.5,69.6,66.4,66.7,61.0,56.2,88,75,61,30.00,29.81,13,7,26,0.04
2012-9-29,76.7,70.1,64.7,66.6,62.3,58.4,91,77,54,29.95,29.83,8,3,19,0.25
2012-9-30,71.5,65.3,62.9,63.3,60.5,57.9,90,85,70,30.11,29.93,8,2,16,0.11
2012-10-1,74.3,65.8,58.7,61.9,58.5,54.6,87,78,62,30.19,30.09,7,2,13,0.00
2012-10-2,78.8,68.2,60.1,65.3,61.4,56.2,88,80,61,30.19,30.14,7,2,14,0.00
2012-10-3,80.6,69.9,61.7,65.0,60.3,55.4,87,73,43,30.18,30.10,6,2,13,0.00
2012-10-4,82.3,69.8,60.5,65.3,60.1,53.4,84,72,50,30.13,30.03,6,1,10,0.00
2012-10-5,79.0,70.8,64.6,67.1,64.0,56.5,87,80,65,30.10,30.05,6,2,10,0.00
2012-10-6,85.3,72.1,64.4,68.3,64.8,60.3,89,79,51,30.15,30.06,5,1,9,0.00
2012-10-7,82.6,73.0,64.8,68.0,65.4,61.2,89,78,57,30.16,30.09,5,1,8,0.00
2012-10-8,86.1,73.0,65.4,68.0,64.4,60.5,93,77,43,30.16,30.04,7,2,11,0.00
2012-10-9,82.3,73.5,65.1,68.3,65.8,59.6,92,78,54,30.06,29.98,6,2,9,0.00
2012-10-10,86.6,74.2,66.2,68.6,65.2,60.8,90,75,44,30.00,29.89,6,1,11,0.00
2012-10-11,71.1,70.8,70.7,68.0,67.8,67.6,91,90,90,29.92,29.86,4,2,6,0.00
2012-10-12,73.8,67.3,64.6,66.5,62.3,59.8,89,84,66,30.01,29.84,10,3,16,0.76
2012-10-13,69.4,64.2,60.8,60.6,58.9,56.6,93,83,70,29.99,29.93,5,2,8,0.57
2012-10-14,72.2,65.1,58.2,63.9,59.6,55.0,91,83,59,29.96,29.67,8,2,19,0.01
2012-10-15,68.6,61.8,57.7,62.1,55.3,51.9,92,80,64,30.01,29.65,9,4,18,0.23
2012-10-16,72.2,62.8,53.6,57.3,54.1,49.9,89,74,52,30.08,30.00,7,2,18,0.00
2012-10-17,80.0,68.2,59.0,61.9,57.9,54.4,87,71,46,30.04,29.91,4,1,8,0.00
2012-10-18,84.3,73.2,65.5,68.2,63.1,59.7,84,72,45,29.91,29.80,4,1,8,0.00
2012-10-19,82.0,74.2,69.3,68.3,64.0,59.3,87,72,50,29.95,29.83,8,2,20,0.00
2012-10-20,82.5,73.1,67.3,68.7,64.1,59.4,90,74,51,29.94,29.82,8,2,19,0.44
2012-10-21,71.3,65.4,61.2,64.6,59.1,55.2,93,81,60,30.00,29.85,8,3,16,0.20
2012-10-22,73.5,65.9,59.1,60.3,57.4,53.6,89,75,51,30.07,29.98,7,2,11,0.00
2012-10-23,72.5,65.8,60.2,60.8,57.9,55.0,88,76,61,30.10,30.05,8,2,10,0.08
2012-10-24,74.8,65.7,60.0,61.4,57.5,55.1,87,76,53,30.08,29.97,5,0,9,0.00
2012-10-25,72.8,66.5,60.1,62.0,60.1,56.8,90,80,66,29.97,29.78,3,1,6,0.00
2012-10-26,73.0,67.9,64.6,63.4,60.4,56.2,92,77,59,29.76,29.51,8,4,16,0.00
2012-10-27,73.6,64.8,51.2,61.0,56.4,47.2,89,75,50,29.73,29.42,10,4,16,0.36
2012-10-28,56.8,54.4,49.5,47.1,34.9,26.3,86,49,31,30.00,29.74,11,5,19,0.02
2012-10-29,64.5,56.1,46.9,44.5,42.4,37.1,77,61,40,30.02,29.90,6,1,9,0.00
2012-10-30,65.4,57.1,50.6,57.5,51.7,44.4,92,82,65,29.90,29.48,3,0,5,0.43
2012-10-31,62.9,59.6,55.3,57.7,53.7,49.7,94,81,66,29.54,29.22,13,4,22,0.33
2012-11-1,67.4,59.6,53.1,52.9,50.5,48.2,89,73,53,29.77,29.52,9,2,15,0.00
2012-11-4,73.9,72.8,71.4,60.3,60.1,59.7,68,64,62,29.70,29.68,14,10,18,0.03
2012-11-5,72.9,66.3,62.8,60.5,53.4,40.0,83,64,37,29.97,29.70,10,4,13,0.02
2012-11-6,63.5,57.9,52.3,51.3,48.1,44.2,85,70,53,30.28,30.07,5,0,10,0.02
2012-11-7,56.8,55.4,52.4,52.0,49.2,45.1,87,80,72,30.38,30.28,4,1,9,0.00
2012-11-8,67.6,58.5,51.0,57.9,50.8,43.7,82,76,64,30.35,30.12,3,0,6,0.00
2012-11-9,72.1,65.4,60.2,63.6,60.4,55.6,92,84,74,30.12,29.90,3,1,6,0.01
2012-11-10,65.3,63.5,60.2,63.1,59.2,53.7,93,86,78,29.91,29.75,6,3,14,0.07
2012-11-11,68.8,60.0,53.8,56.7,53.4,49.9,92,80,53,29.96,29.71,8,2,11,1.31
2012-11-12,60.5,58.6,55.6,55.7,52.9,49.6,93,82,73,30.14,29.95,12,8,23,0.08
2012-11-13,66.0,61.4,57.6,63.9,57.7,49.9,94,88,75,30.11,29.94,14,10,25,0.67
2012-11-14,67.4,64.9,63.0,64.0,61.1,58.5,94,88,78,30.08,29.97,10,6,16,0.09
2012-11-15,67.4,63.7,58.5,61.4,60.0,55.9,92,88,77,30.12,30.07,7,4,11,0.03
2012-11-16,68.8,58.3,53.7,58.0,53.2,49.3,90,83,66,30.13,30.07,1,0,4,0.00
2012-11-17,63.9,61.1,57.8,59.1,56.6,54.6,92,86,75,30.01,29.74,4,0,6,0.02
2012-11-18,60.7,58.5,55.5,58.4,56.2,53.2,93,92,91,29.75,29.71,3,0,5,0.00
2012-11-19,63.7,59.1,52.0,56.2,53.3,48.8,93,82,63,30.06,29.84,8,3,14,0.08
2012-11-20,67.6,57.9,50.0,59.0,52.8,46.5,89,83,68,30.10,30.04,6,1,10,0.00
2012-11-21,66.4,59.5,55.4,59.3,56.0,53.3,94,88,74,30.17,30.04,6,1,14,0.01
2012-11-22,66.6,58.3,54.1,59.7,54.8,52.1,94,89,70,30.21,30.15,5,0,8,0.01
2012-11-23,67.0,57.5,51.6,57.7,52.9,48.9,92,85,68,30.24,30.18,5,1,7,0.01
2012-11-24,66.7,58.0,52.8,59.2,53.4,50.0,95,85,63,30.22,30.12,4,1,8,0.00
2012-11-25,68.8,56.8,49.3,58.2,51.5,46.8,95,83,57,30.17,30.08,5,1,10,0.01
2012-11-26,68.1,60.7,56.6,59.1,56.2,52.8,92,85,66,30.08,29.80,7,2,12,0.00
2012-11-27,59.5,55.2,50.0,57.6,52.2,45.1,95,90,76,29.81,29.54,7,1,13,0.95
2012-11-28,54.4,49.7,45.1,48.1,44.4,42.0,91,83,65,29.56,29.42,12,2,19,0.28
2012-11-29,57.7,52.7,47.6,44.2,41.6,39.2,79,66,53,29.67,29.50,9,3,15,0.00
2012-11-30,53.2,47.6,43.0,45.5,41.9,39.4,91,81,65,29.74,29.61,6,1,9,0.06
2012-12-1,53.2,49.5,45.7,41.8,39.3,35.2,81,68,60,29.97,29.74,14,7,22,0.00
2012-12-2,58.2,49.5,41.9,41.0,36.4,31.5,77,62,43,30.22,29.97,7,2,14,0.00
2012-12-3,63.2,54.2,46.5,48.1,44.8,38.6,83,71,56,30.29,30.18,7,2,12,0.00
2012-12-4,60.5,55.0,48.6,50.1,44.2,38.0,90,69,48,30.22,29.96,15,5,26,0.00
2012-12-5,57.1,55.3,54.0,40.6,38.0,34.4,59,52,44,30.05,29.93,15,7,26,0.00
2012-12-6,57.6,53.8,52.0,41.8,39.9,38.1,65,59,51,30.11,30.03,12,4,20,0.00
2012-12-8,60.0,53.3,46.3,49.8,44.3,39.5,93,73,51,30.22,29.89,7,2,13,0.17
2012-12-9,58.9,49.9,43.9,45.6,39.8,34.9,86,69,50,30.33,30.23,8,1,11,0.00
2012-12-10,61.6,50.4,43.4,47.4,42.5,37.4,88,75,49,30.24,30.05,5,1,10,0.00
2012-12-11,48.8,46.6,45.2,44.5,41.8,40.9,86,83,79,30.16,30.12,1,0,2,0.00
2012-12-12,51.9,49.2,46.3,47.7,44.1,40.6,92,83,70,30.16,30.04,3,0,5,0.22
2012-12-13,59.6,53.8,49.8,54.5,50.3,47.6,95,88,73,30.05,29.95,6,1,12,0.15
2012-12-14,60.3,56.1,52.8,53.7,51.3,49.0,91,84,76,29.98,29.91,11,5,22,0.00
2012-12-15,68.3,61.9,58.1,58.8,56.5,55.1,92,83,65,30.12,30.02,7,3,12,0.00
2012-12-16,65.6,59.8,54.1,56.8,50.4,43.7,92,73,48,30.18,30.07,7,3,12,0.00
2012-12-17,63.7,60.3,56.0,53.3,45.4,36.0,84,60,40,30.17,30.01,12,4,22,0.00
2012-12-18,64.5,57.8,49.5,44.0,40.3,33.6,67,53,36,30.20,30.14,11,4,18,0.00
2012-12-19,65.5,55.0,48.3,53.6,45.8,39.1,87,72,55,30.21,30.15,2,0,5,0.00
2012-12-20,63.2,57.1,52.3,54.8,51.2,47.7,89,81,62,30.15,30.00,8,3,16,0.00
2012-12-21,64.3,58.3,52.2,52.7,47.4,41.7,86,68,45,30.11,29.98,9,4,15,0.00
2012-12-22,62.2,57.1,50.5,52.5,48.7,43.8,84,74,53,30.30,30.09,10,2,15,0.00
2012-12-23,59.8,54.7,51.6,56.2,52.5,48.8,96,92,87,30.27,30.17,8,3,12,0.02
2012-12-24,66.2,55.7,51.4,56.3,52.6,50.3,97,90,67,30.17,30.08,6,4,10,0.01
2012-12-26,60.3,54.8,47.7,50.9,47.7,43.1,84,77,69,30.36,30.22,7,1,12,0.02
2012-12-27,64.4,53.2,45.4,49.9,44.7,37.3,87,74,37,30.41,30.33,8,3,11,0.00
2012-12-28,61.5,53.3,46.8,53.3,47.1,41.5,88,80,71,30.51,30.36,4,0,10,0.00
2012-12-29,61.9,53.1,45.0,53.4,47.9,40.9,90,83,69,30.41,30.20,8,3,16,0.01
2012-12-30,61.5,53.7,45.9,47.9,44.1,37.5,90,71,53,30.43,30.21,7,2,14,0.00
2012-12-31,59.6,50.7,42.6,48.9,42.7,37.8,86,75,57,30.41,30.15,6,1,14,0.00
2013-1-1,58.9,53.5,48.6,50.1,46.1,44.0,88,77,59,30.14,30.03,5,2,9,0.00